createdAt,value
2023-04-16T00:01:34.008Z,12.50
2023-04-16T00:04:00.896Z,11.47
2023-04-16T00:06:28.773Z,16.97
2023-04-16T00:08:55.530Z,13.60
2023-04-16T00:11:22.380Z,15.40
2023-04-16T00:13:49.232Z,16.00
2023-04-16T00:16:16.266Z,15.00
2023-04-16T00:18:43.526Z,13.00
2023-04-16T00:21:10.173Z,14.37
2023-04-16T00:23:36.871Z,13.23
2023-04-16T00:26:03.793Z,14.37
2023-04-16T00:28:30.499Z,13.53
2023-04-16T00:30:57.156Z,13.53
2023-04-16T00:33:24.016Z,13.67
2023-04-16T00:35:51.353Z,12.60
2023-04-16T00:38:18.175Z,12.70
2023-04-16T00:40:45.280Z,12.27
2023-04-16T00:43:11.856Z,12.23
2023-04-16T00:45:38.888Z,12.17
2023-04-16T00:48:06.143Z,11.53
2023-04-16T00:50:33.749Z,11.37
2023-04-16T00:53:02.898Z,10.60
2023-04-16T00:55:30.045Z,10.37
2023-04-16T00:57:56.621Z,11.10
2023-04-16T01:00:23.339Z,10.47
2023-04-16T01:02:50.170Z,10.27
2023-04-16T01:05:16.934Z,9.23
2023-04-16T01:07:44.580Z,10.00
2023-04-16T01:10:11.418Z,10.17
2023-04-16T01:12:38.050Z,11.10
2023-04-16T01:15:05.130Z,11.07
2023-04-16T01:17:31.715Z,11.90
2023-04-16T01:20:00.386Z,12.70
2023-04-16T01:22:28.708Z,12.33
2023-04-16T01:24:55.326Z,12.67
2023-04-16T01:27:21.956Z,13.00
2023-04-16T01:29:48.828Z,13.27
2023-04-16T01:32:15.650Z,13.40
2023-04-16T01:34:42.230Z,13.47
2023-04-16T01:37:08.871Z,13.33
2023-04-16T01:39:35.733Z,15.20
2023-04-16T01:42:02.560Z,15.43
2023-04-16T01:44:29.299Z,15.87
2023-04-16T01:46:58.509Z,14.57
2023-04-16T01:49:25.480Z,15.57
2023-04-16T01:51:53.082Z,15.77
2023-04-16T01:54:21.947Z,14.97
2023-04-16T01:56:48.601Z,15.20
2023-04-16T01:59:15.219Z,14.70
2023-04-16T02:01:42.993Z,16.97
2023-04-16T02:04:10.752Z,16.20
2023-04-16T02:06:37.466Z,17.13
2023-04-16T02:09:04.270Z,16.17
2023-04-16T02:11:31.083Z,15.53
2023-04-16T02:13:58.211Z,17.23
2023-04-16T02:16:26.484Z,19.00
2023-04-16T02:18:53.166Z,19.93
2023-04-16T02:21:20.449Z,19.33
2023-04-16T02:23:51.877Z,19.07
2023-04-16T02:26:18.707Z,18.90
2023-04-16T02:28:45.390Z,20.27
2023-04-16T02:31:12.024Z,20.83
2023-04-16T02:33:38.664Z,18.83
2023-04-16T02:36:05.650Z,18.37
2023-04-16T02:38:32.335Z,22.97
2023-04-16T02:40:59.590Z,20.13
2023-04-16T02:43:26.560Z,19.73
2023-04-16T02:45:53.535Z,20.37
2023-04-16T02:48:20.247Z,20.57
2023-04-16T02:50:46.939Z,20.97
2023-04-16T02:53:13.655Z,19.83
2023-04-16T02:55:40.269Z,19.23
2023-04-16T02:58:07.199Z,20.10
2023-04-16T03:00:33.819Z,18.60
2023-04-16T03:03:00.468Z,17.07
2023-04-16T03:05:27.082Z,18.97
2023-04-16T03:07:56.867Z,18.63
2023-04-16T03:10:24.279Z,17.43
2023-04-16T03:12:51.078Z,18.67
2023-04-16T03:15:17.856Z,19.53
2023-04-16T03:17:44.588Z,20.70
2023-04-16T03:20:11.602Z,23.50
2023-04-16T03:22:39.153Z,23.50
2023-04-16T03:25:06.735Z,20.47
2023-04-16T03:27:36.924Z,21.90
2023-04-16T03:30:04.882Z,22.57
2023-04-16T03:32:31.571Z,21.87
2023-04-16T03:34:58.237Z,23.57
2023-04-16T03:37:24.945Z,26.20
2023-04-16T03:39:51.724Z,24.23
2023-04-16T03:42:18.356Z,23.83
2023-04-16T03:44:47.936Z,22.97
2023-04-16T03:47:17.405Z,22.97
2023-04-16T03:49:44.057Z,24.27
2023-04-16T03:52:11.717Z,23.53
2023-04-16T03:54:38.336Z,21.03
2023-04-16T03:57:05.117Z,23.87
2023-04-16T03:59:31.732Z,22.80
2023-04-16T04:01:58.802Z,24.43
2023-04-16T04:04:25.627Z,24.47
2023-04-16T04:06:52.295Z,24.33
2023-04-16T04:09:18.992Z,25.13
2023-04-16T04:11:45.700Z,24.60
2023-04-16T04:14:12.326Z,25.67
2023-04-16T04:16:39.061Z,24.63
2023-04-16T04:19:05.815Z,26.93
2023-04-16T04:21:34.981Z,27.33
2023-04-16T04:24:04.462Z,29.17
2023-04-16T04:26:31.162Z,28.00
2023-04-16T04:28:57.784Z,27.10
2023-04-16T04:31:24.523Z,27.53
2023-04-16T04:33:51.210Z,28.73
2023-04-16T04:36:17.807Z,28.07
2023-04-16T04:38:44.390Z,27.33
2023-04-16T04:41:11.116Z,28.33
2023-04-16T04:43:37.745Z,28.80
2023-04-16T04:46:04.731Z,29.10
2023-04-16T04:48:31.445Z,27.27
2023-04-16T04:50:58.162Z,26.00
2023-04-16T04:53:24.741Z,26.10
2023-04-16T04:55:54.238Z,28.40
2023-04-16T04:58:24.036Z,27.70
2023-04-16T05:00:50.665Z,28.10
2023-04-16T05:03:20.942Z,26.53
2023-04-16T05:05:48.152Z,25.17
2023-04-16T05:08:14.768Z,25.70
2023-04-16T05:10:41.513Z,26.37
2023-04-16T05:13:08.113Z,25.33
2023-04-16T05:15:34.735Z,24.30
2023-04-16T05:18:01.782Z,23.37
2023-04-16T05:20:28.372Z,24.17
2023-04-16T05:22:55.568Z,23.37
2023-04-16T05:25:22.587Z,22.13
2023-04-16T05:27:49.348Z,22.07
2023-04-16T05:30:16.026Z,22.70
2023-04-16T05:32:42.676Z,21.50
2023-04-16T05:35:10.138Z,20.37
2023-04-16T05:37:36.871Z,24.50
2023-04-16T05:40:04.218Z,25.03
2023-04-16T05:42:31.204Z,25.30
2023-04-16T05:44:57.891Z,23.80
2023-04-16T05:47:25.818Z,23.47
2023-04-16T05:49:52.418Z,24.97
2023-04-16T05:52:19.099Z,26.23
2023-04-16T05:54:45.751Z,27.33
2023-04-16T05:57:13.955Z,28.27
2023-04-16T05:59:40.584Z,28.67
2023-04-16T06:02:07.242Z,27.10
2023-04-16T06:04:35.834Z,28.30
2023-04-16T06:07:02.508Z,26.07
2023-04-16T06:09:30.168Z,23.60
2023-04-16T06:11:56.869Z,21.43
2023-04-16T06:14:23.829Z,21.03
2023-04-16T06:16:50.444Z,22.30
2023-04-16T06:19:17.817Z,23.40
2023-04-16T06:21:44.844Z,21.57
2023-04-16T06:24:11.424Z,25.67
2023-04-16T06:26:40.622Z,21.93
2023-04-16T06:29:07.485Z,22.43
2023-04-16T06:31:37.503Z,22.50
2023-04-16T06:34:04.195Z,22.93
2023-04-16T06:36:31.374Z,22.30
2023-04-16T06:38:58.133Z,21.53
2023-04-16T06:41:26.829Z,20.90
2023-04-16T06:43:53.414Z,21.87
2023-04-16T06:46:22.379Z,20.63
2023-04-16T06:48:49.080Z,21.27
2023-04-16T06:51:15.779Z,21.40
2023-04-16T06:53:42.746Z,20.07
2023-04-16T06:56:09.502Z,21.17
2023-04-16T06:58:36.495Z,20.47
2023-04-16T07:01:03.185Z,20.53
2023-04-16T07:03:30.044Z,21.27
2023-04-16T07:05:56.957Z,20.53
2023-04-16T07:08:23.873Z,20.23
2023-04-16T07:10:54.018Z,21.10
2023-04-16T07:13:21.004Z,20.73
2023-04-16T07:15:48.165Z,20.80
2023-04-16T07:18:14.910Z,21.80
2023-04-16T07:20:41.650Z,23.13
2023-04-16T07:23:08.323Z,25.23
2023-04-16T07:25:35.138Z,24.67
2023-04-16T07:28:01.992Z,23.50
2023-04-16T07:30:34.175Z,24.17
2023-04-16T07:33:04.964Z,23.37
2023-04-16T07:35:32.089Z,22.40
2023-04-16T07:37:58.839Z,23.10
2023-04-16T07:40:25.606Z,21.53
2023-04-16T07:42:52.364Z,21.63
2023-04-16T07:45:19.539Z,21.80
2023-04-16T07:47:46.542Z,20.83
2023-04-16T07:50:13.464Z,22.47
2023-04-16T07:52:41.594Z,20.33
2023-04-16T07:55:09.197Z,19.60
2023-04-16T07:57:36.071Z,19.60
2023-04-16T08:00:05.103Z,21.03
2023-04-16T08:02:32.642Z,21.77
2023-04-16T08:04:59.742Z,21.63
2023-04-16T08:07:26.407Z,21.37
2023-04-16T08:09:53.605Z,21.10
2023-04-16T08:12:21.120Z,21.23
2023-04-16T08:14:50.357Z,19.83
2023-04-16T08:17:17.048Z,18.47
2023-04-16T08:19:45.223Z,18.80
2023-04-16T08:22:14.892Z,19.23
2023-04-16T08:24:41.548Z,19.07
2023-04-16T08:27:18.452Z,19.43
2023-04-16T08:29:46.111Z,19.10
2023-04-16T08:32:12.946Z,18.33
2023-04-16T08:34:39.651Z,18.80
2023-04-16T08:37:06.574Z,18.37
2023-04-16T08:39:33.188Z,18.27
2023-04-16T08:42:03.631Z,17.40
2023-04-16T08:44:36.036Z,17.40
2023-04-16T08:47:03.416Z,17.20
2023-04-16T08:49:33.423Z,17.77
2023-04-16T08:52:00.710Z,16.17
2023-04-16T08:54:36.388Z,17.30
2023-04-16T08:57:07.129Z,16.33
2023-04-16T08:59:34.977Z,16.47
2023-04-16T09:02:02.568Z,18.00
2023-04-16T09:04:29.641Z,19.70
2023-04-16T09:06:57.564Z,19.57
2023-04-16T09:09:26.626Z,19.43
2023-04-16T09:11:54.025Z,20.23
2023-04-16T09:14:20.830Z,19.30
2023-04-16T09:16:48.173Z,19.47
2023-04-16T09:19:15.853Z,18.27
2023-04-16T09:21:46.101Z,18.20
2023-04-16T09:24:13.293Z,18.57
2023-04-16T09:26:43.556Z,18.57
2023-04-16T09:29:10.533Z,17.93
2023-04-16T09:31:37.939Z,17.20
2023-04-16T09:34:07.026Z,15.60
2023-04-16T09:36:35.031Z,15.17
2023-04-16T09:39:02.782Z,17.37
2023-04-16T09:41:36.233Z,18.00
2023-04-16T09:44:04.799Z,18.40
2023-04-16T09:46:35.152Z,18.37
2023-04-16T09:49:16.102Z,17.83
2023-04-16T09:51:46.725Z,14.87
2023-04-16T09:54:13.754Z,15.73
2023-04-16T09:56:44.641Z,15.00
2023-04-16T09:59:24.568Z,14.30
2023-04-16T10:01:53.508Z,15.27
2023-04-16T10:04:52.888Z,15.03
2023-04-16T10:07:20.390Z,14.77
2023-04-16T10:09:50.776Z,15.10
2023-04-16T10:12:17.372Z,14.57
2023-04-16T10:14:44.143Z,14.07
2023-04-16T10:17:10.931Z,15.17
2023-04-16T10:19:38.049Z,15.53
2023-04-16T10:22:05.571Z,16.00
2023-04-16T10:24:34.121Z,16.60
2023-04-16T10:27:02.922Z,17.73
2023-04-16T10:29:31.604Z,17.67
2023-04-16T10:31:58.977Z,17.03
2023-04-16T10:34:29.192Z,16.37
2023-04-16T10:36:56.237Z,14.50
2023-04-16T10:39:24.539Z,14.57
2023-04-16T10:42:06.377Z,17.27
2023-04-16T10:44:33.585Z,18.67
2023-04-16T10:47:00.988Z,18.87
2023-04-16T10:49:27.650Z,18.60
2023-04-16T10:51:59.081Z,18.87
2023-04-16T10:54:30.770Z,19.70
2023-04-16T10:57:01.269Z,16.60
2023-04-16T10:59:37.488Z,14.90
2023-04-16T11:02:10.233Z,13.90
2023-04-16T11:04:38.775Z,13.27
2023-04-16T11:07:15.173Z,13.03
2023-04-16T11:10:02.619Z,12.87
2023-04-16T11:12:29.318Z,13.37
2023-04-16T11:15:09.673Z,11.47
2023-04-16T11:17:47.410Z,11.00
2023-04-16T11:20:22.616Z,11.40
2023-04-16T11:22:54.124Z,11.47
2023-04-16T11:25:30.004Z,11.23
2023-04-16T11:27:59.331Z,12.10
2023-04-16T11:30:36.525Z,12.77
2023-04-16T11:33:04.192Z,12.77
2023-04-16T11:35:31.268Z,12.57
2023-04-16T11:37:58.819Z,11.83
2023-04-16T11:40:26.247Z,12.23
2023-04-16T11:42:52.893Z,11.97
2023-04-16T11:45:19.885Z,11.13
2023-04-16T11:47:56.941Z,11.20
2023-04-16T11:50:29.158Z,11.47
2023-04-16T11:53:03.333Z,11.20
2023-04-16T11:55:30.001Z,11.23
2023-04-16T11:57:56.741Z,11.70
2023-04-16T12:00:24.767Z,11.67
2023-04-16T12:02:57.320Z,10.90
2023-04-16T12:05:35.230Z,12.57
2023-04-16T12:08:07.281Z,12.03
2023-04-16T12:10:36.174Z,11.50
2023-04-16T12:13:16.527Z,11.63
2023-04-16T12:15:47.203Z,11.70
2023-04-16T12:18:14.468Z,10.90
2023-04-16T12:20:42.102Z,11.03
2023-04-16T12:23:09.693Z,11.23
2023-04-16T12:25:36.461Z,12.07
2023-04-16T12:28:03.285Z,11.53
2023-04-16T12:30:32.364Z,10.77
2023-04-16T12:33:17.895Z,11.47
2023-04-16T12:35:46.192Z,11.93
2023-04-16T12:38:15.287Z,10.93
2023-04-16T12:40:42.053Z,12.70
2023-04-16T12:43:10.157Z,12.30
2023-04-16T12:45:37.306Z,12.53
2023-04-16T12:48:04.134Z,12.50
2023-04-16T12:50:30.795Z,12.77
2023-04-16T12:52:58.051Z,11.93
2023-04-16T12:55:25.700Z,11.97
2023-04-16T12:57:55.813Z,12.53
2023-04-16T13:00:22.862Z,12.67
2023-04-16T13:02:49.781Z,12.07
2023-04-16T13:05:19.327Z,12.53
2023-04-16T13:07:46.343Z,12.43
2023-04-16T13:10:14.042Z,12.73
2023-04-16T13:12:40.798Z,11.93
2023-04-16T13:35:26.736Z,13.10
2023-04-16T13:37:53.507Z,13.13
2023-04-16T13:40:22.333Z,12.93
2023-04-16T13:42:48.923Z,12.57
2023-04-16T13:45:15.566Z,13.10
2023-04-16T13:47:43.637Z,12.73
2023-04-16T13:50:11.047Z,13.30
2023-04-16T13:52:37.739Z,13.93
2023-04-16T13:55:04.981Z,13.30
2023-04-16T13:57:32.234Z,13.60
2023-04-16T13:59:58.865Z,13.17
2023-04-16T14:02:27.129Z,13.03
2023-04-16T14:04:54.279Z,13.30
2023-04-16T14:07:22.720Z,13.40
2023-04-16T14:09:49.313Z,12.73
2023-04-16T14:12:16.545Z,12.77
2023-04-16T14:14:43.442Z,12.77
2023-04-16T14:17:15.336Z,12.83
2023-04-16T14:19:42.208Z,12.00
2023-04-16T14:22:09.566Z,13.17
2023-04-16T14:24:36.789Z,12.20
2023-04-16T14:27:03.453Z,11.70
2023-04-16T14:29:31.095Z,11.80
2023-04-16T14:31:57.756Z,12.20
2023-04-16T14:34:24.418Z,12.53
2023-04-16T14:36:52.080Z,12.87
2023-04-16T14:39:18.752Z,12.00
2023-04-16T14:41:45.418Z,11.87
2023-04-16T14:44:12.041Z,11.77
2023-04-16T14:46:41.152Z,12.37
2023-04-16T14:49:10.070Z,10.37
2023-04-16T14:51:40.971Z,12.00
2023-04-16T14:54:07.720Z,11.50
2023-04-16T14:56:34.278Z,12.27
2023-04-16T14:59:00.976Z,11.43
2023-04-16T15:01:27.767Z,10.97
2023-04-16T15:03:57.502Z,12.43
2023-04-16T15:06:25.124Z,11.13
2023-04-16T15:08:52.113Z,11.17
2023-04-16T15:11:18.778Z,11.37
2023-04-16T15:13:45.437Z,10.93
2023-04-16T15:16:12.120Z,10.83
2023-04-16T15:18:39.378Z,10.30
2023-04-16T15:21:06.391Z,10.47
2023-04-16T15:23:33.365Z,11.00
2023-04-16T15:26:00.290Z,10.07
2023-04-16T15:28:27.255Z,10.40
2023-04-16T15:30:53.990Z,11.50
2023-04-16T15:35:53.688Z,10.40
2023-04-16T15:38:21.546Z,10.37
2023-04-16T15:40:48.376Z,10.23
2023-04-16T15:43:15.839Z,10.03
2023-04-16T15:45:42.537Z,10.60
2023-04-16T15:48:09.187Z,9.80
2023-04-16T15:50:35.962Z,9.90
2023-04-16T15:53:03.423Z,10.20
2023-04-16T15:55:30.156Z,10.33
2023-04-16T15:57:57.261Z,10.07
2023-04-16T16:00:24.097Z,9.97
2023-04-16T16:02:51.011Z,14.43
2023-04-16T16:05:17.722Z,14.67
2023-04-16T16:07:44.631Z,14.83
2023-04-16T16:10:13.126Z,15.40
2023-04-16T16:12:40.886Z,14.97
2023-04-16T16:15:08.335Z,15.07
2023-04-16T16:17:35.429Z,14.00
2023-04-16T16:20:02.495Z,14.00
2023-04-16T16:22:29.965Z,13.07
2023-04-16T16:24:57.816Z,13.53
2023-04-16T16:27:24.921Z,13.10
2023-04-16T16:29:51.851Z,14.60
2023-04-16T16:32:18.448Z,14.67
2023-04-16T16:34:45.099Z,14.33
2023-04-16T16:37:11.722Z,15.70
2023-04-16T16:39:38.972Z,15.27
2023-04-16T16:42:06.148Z,16.07
2023-04-16T16:44:35.197Z,16.73
2023-04-16T16:47:01.831Z,16.50
2023-04-16T16:49:28.483Z,16.00
2023-04-16T16:51:55.099Z,17.83
2023-04-16T16:54:21.676Z,17.10
2023-04-16T16:56:48.274Z,18.03
2023-04-16T16:59:14.911Z,16.67
2023-04-16T17:01:41.850Z,18.17
2023-04-16T17:04:08.492Z,17.20
2023-04-16T17:06:35.275Z,18.17
2023-04-16T17:09:02.095Z,19.37
2023-04-16T17:11:29.421Z,19.67
2023-04-16T17:13:56.105Z,19.40
2023-04-16T17:16:23.954Z,19.30
2023-04-16T17:18:50.890Z,18.70
2023-04-16T17:21:19.756Z,18.37
2023-04-16T17:23:46.358Z,19.70
2023-04-16T17:26:15.487Z,20.33
2023-04-16T17:28:42.143Z,19.20
2023-04-16T17:31:08.816Z,19.70
2023-04-16T17:33:35.652Z,18.73
2023-04-16T17:36:02.293Z,18.33
2023-04-16T17:38:28.876Z,19.03
2023-04-16T17:40:57.160Z,19.03
2023-04-16T17:43:24.330Z,18.93
2023-04-16T17:45:50.978Z,20.20
2023-04-16T17:48:17.608Z,19.80
2023-04-16T17:50:44.243Z,19.23
2023-04-16T17:53:11.099Z,19.83
2023-04-16T17:55:38.051Z,18.80
2023-04-16T17:58:04.871Z,19.30
2023-04-16T18:00:31.490Z,18.50
2023-04-16T18:02:59.834Z,19.13
2023-04-16T18:05:26.650Z,18.47
2023-04-16T18:07:53.648Z,18.43
2023-04-16T18:10:20.611Z,19.33
2023-04-16T18:12:47.213Z,19.33
2023-04-16T18:15:13.779Z,17.20
2023-04-16T18:17:40.570Z,17.17
2023-04-16T18:20:09.126Z,17.90
2023-04-16T18:22:35.664Z,17.23
2023-04-16T18:25:02.335Z,17.40
2023-04-16T18:27:28.964Z,16.70
2023-04-16T18:29:55.665Z,17.57
2023-04-16T18:32:22.327Z,15.83
2023-04-16T18:34:48.969Z,15.83
2023-04-16T18:37:15.534Z,16.10
2023-04-16T18:39:42.142Z,15.40
2023-04-16T18:42:08.739Z,16.40
2023-04-16T18:44:35.560Z,16.23
2023-04-16T18:47:02.300Z,16.13
2023-04-16T18:49:29.059Z,16.37
2023-04-16T18:51:56.210Z,16.97
2023-04-16T18:54:23.090Z,16.07
2023-04-16T18:56:49.745Z,16.47
2023-04-16T18:59:16.324Z,15.13
2023-04-16T19:01:43.318Z,14.53
2023-04-16T19:04:10.031Z,14.70
2023-04-16T19:06:36.690Z,14.47
2023-04-16T19:09:03.403Z,14.70
2023-04-16T19:11:29.971Z,14.60
2023-04-16T19:13:57.696Z,14.63
2023-04-16T19:16:24.336Z,14.47
2023-04-16T19:18:50.963Z,13.23
2023-04-16T19:21:17.565Z,14.17
2023-04-16T19:23:44.211Z,15.17
2023-04-16T19:26:11.041Z,15.80
2023-04-16T19:28:38.897Z,14.60
2023-04-16T19:31:06.555Z,14.80
2023-04-16T19:33:33.386Z,15.07
2023-04-16T19:36:00.520Z,14.60
2023-04-16T19:38:27.372Z,15.00
2023-04-16T19:40:54.266Z,14.27
2023-04-16T19:43:21.384Z,14.20
2023-04-16T19:45:53.592Z,15.50
2023-04-16T19:48:20.871Z,16.50
2023-04-16T19:50:47.817Z,15.00
2023-04-16T19:53:14.721Z,14.80
2023-04-16T19:55:41.893Z,15.57
2023-04-16T19:58:09.242Z,15.70
2023-04-16T20:00:41.006Z,14.67
2023-04-16T20:03:07.752Z,15.27
2023-04-16T20:05:34.524Z,15.43
2023-04-16T20:08:01.207Z,14.90
2023-04-16T20:10:27.990Z,14.40
2023-04-16T20:12:54.593Z,15.93
2023-04-16T20:15:21.188Z,16.03
2023-04-16T20:17:47.827Z,15.23
2023-04-16T20:20:23.814Z,16.90
2023-04-16T20:22:52.930Z,16.10
2023-04-16T20:25:19.941Z,16.13
2023-04-16T20:27:46.639Z,16.50
2023-04-16T20:30:14.167Z,16.03
2023-04-16T20:32:40.865Z,17.43
2023-04-16T20:35:11.049Z,18.13
2023-04-16T20:37:43.143Z,17.60
2023-04-16T20:40:11.038Z,16.43
2023-04-16T20:42:37.738Z,17.23
2023-04-16T20:45:05.155Z,17.30
2023-04-16T20:47:31.864Z,18.30
2023-04-16T20:50:01.966Z,18.97
2023-04-16T20:52:37.481Z,18.10
2023-04-16T20:55:04.333Z,17.70
2023-04-16T20:57:32.225Z,18.37
2023-04-16T20:59:58.889Z,19.50
2023-04-16T21:02:25.847Z,19.57
2023-04-16T21:04:52.713Z,19.37
2023-04-16T21:07:19.414Z,20.80
2023-04-16T21:09:46.086Z,20.30
2023-04-16T21:12:12.655Z,21.10
2023-04-16T21:14:39.440Z,20.57
2023-04-16T21:17:06.020Z,22.30
2023-04-16T21:19:32.652Z,20.60
2023-04-16T21:21:59.303Z,21.47
2023-04-16T21:25:07.625Z,20.70
2023-04-16T21:28:08.436Z,22.00
2023-04-16T21:30:44.245Z,21.90
2023-04-16T21:33:12.956Z,22.03
2023-04-16T21:35:39.552Z,23.77
2023-04-16T21:38:06.201Z,23.83
2023-04-16T21:40:32.860Z,23.27
2023-04-16T21:42:59.445Z,23.03
2023-04-16T21:45:26.071Z,24.27
2023-04-16T21:47:52.714Z,24.87
2023-04-16T21:50:19.517Z,25.10
2023-04-16T21:52:46.896Z,27.03
2023-04-16T21:55:14.803Z,24.87
2023-04-16T21:57:41.444Z,24.37
2023-04-16T22:00:14.927Z,26.80
2023-04-16T22:02:43.128Z,27.20
2023-04-16T22:05:11.448Z,26.47
2023-04-16T22:07:38.649Z,28.37
2023-04-16T22:10:06.949Z,26.73
2023-04-16T22:12:33.649Z,26.30
2023-04-16T22:15:03.096Z,26.53
2023-04-16T22:17:30.433Z,28.40
2023-04-16T22:20:00.778Z,28.73
2023-04-16T22:22:27.442Z,28.57
2023-04-16T22:24:54.124Z,30.00
2023-04-16T22:27:20.810Z,30.80
2023-04-16T22:29:47.599Z,29.10
2023-04-16T22:32:14.324Z,32.07
2023-04-16T22:34:40.999Z,29.63
2023-04-16T22:37:08.311Z,30.83
2023-04-16T22:39:35.622Z,29.40
2023-04-16T22:42:02.724Z,28.33
2023-04-16T22:44:29.405Z,29.63
2023-04-16T22:46:56.188Z,27.40
2023-04-16T22:49:22.964Z,27.03
2023-04-16T22:51:49.805Z,26.00
2023-04-16T22:54:18.807Z,26.87
2023-04-16T22:56:47.021Z,27.03
2023-04-16T22:59:13.849Z,30.07
2023-04-16T23:01:42.304Z,28.97
2023-04-16T23:04:09.073Z,29.03
2023-04-16T23:06:35.742Z,30.20
2023-04-16T23:09:02.744Z,28.13
2023-04-16T23:11:29.657Z,29.43
2023-04-16T23:13:56.347Z,28.53
2023-04-16T23:16:23.027Z,30.77
2023-04-16T23:18:50.580Z,28.07
2023-04-16T23:21:17.191Z,29.03
2023-04-16T23:23:43.899Z,27.67
2023-04-16T23:26:10.776Z,27.30
2023-04-16T23:28:37.828Z,25.33
2023-04-16T23:31:07.098Z,25.17
2023-04-16T23:33:34.137Z,25.13
2023-04-16T23:36:01.031Z,26.23
2023-04-16T23:38:27.703Z,27.27
2023-04-16T23:40:54.331Z,25.03
2023-04-16T23:43:21.521Z,25.40
2023-04-16T23:45:48.320Z,26.73
2023-04-16T23:48:14.991Z,24.47
2023-04-16T23:50:41.883Z,24.23
2023-04-16T23:53:08.531Z,23.57
2023-04-16T23:55:35.675Z,25.03
2023-04-16T23:58:02.315Z,23.70
